createdAt,value
2018-04-09T00:00:32.080Z,11.50
2018-04-09T00:01:31.968Z,11.00
2018-04-09T00:02:32.040Z,11.00
2018-04-09T00:03:31.970Z,11.00
2018-04-09T00:04:32.041Z,11.00
2018-04-09T00:05:31.976Z,11.00
2018-04-09T00:06:32.041Z,11.00
2018-04-09T00:07:31.977Z,11.00
2018-04-09T00:08:32.040Z,11.00
2018-04-09T00:09:32.042Z,11.00
2018-04-09T00:10:31.976Z,11.00
2018-04-09T00:11:32.058Z,12.80
2018-04-09T00:12:31.967Z,12.80
2018-04-09T00:13:31.950Z,12.80
2018-04-09T00:14:32.061Z,12.80
2018-04-09T00:15:32.070Z,12.80
2018-04-09T00:16:32.002Z,12.80
2018-04-09T00:17:32.015Z,12.80
2018-04-09T00:18:31.952Z,12.80
2018-04-09T00:19:31.973Z,12.80
2018-04-09T00:20:32.072Z,12.80
2018-04-09T00:21:32.063Z,12.20
2018-04-09T00:22:31.992Z,12.20
2018-04-09T00:23:32.082Z,12.20
2018-04-09T00:24:32.033Z,12.20
2018-04-09T00:25:31.993Z,12.20
2018-04-09T00:26:32.036Z,12.20
2018-04-09T00:27:32.000Z,12.20
2018-04-09T00:28:31.984Z,12.20
2018-04-09T00:29:32.057Z,12.20
2018-04-09T00:30:32.095Z,12.20
2018-04-09T00:31:32.100Z,11.80
2018-04-09T00:32:32.062Z,11.80
2018-04-09T00:33:32.032Z,11.80
2018-04-09T00:34:32.069Z,11.80
2018-04-09T00:35:31.982Z,11.80
2018-04-09T00:36:32.123Z,11.80
2018-04-09T00:37:31.980Z,11.80
2018-04-09T00:38:32.087Z,11.80
2018-04-09T00:39:32.067Z,11.80
2018-04-09T00:40:32.034Z,11.80
2018-04-09T00:41:31.983Z,12.20
2018-04-09T00:42:32.082Z,12.20
2018-04-09T00:43:32.075Z,12.20
2018-04-09T00:44:32.077Z,12.20
2018-04-09T00:45:32.104Z,12.20
2018-04-09T00:46:32.101Z,12.20
2018-04-09T00:47:32.107Z,12.20
2018-04-09T00:48:32.089Z,12.20
2018-04-09T00:49:32.079Z,12.20
2018-04-09T00:50:31.993Z,12.20
2018-04-09T00:51:32.106Z,12.20
2018-04-09T00:52:32.052Z,12.30
2018-04-09T00:53:32.009Z,12.30
2018-04-09T00:54:32.083Z,12.30
2018-04-09T00:55:32.009Z,12.30
2018-04-09T00:56:32.083Z,12.30
2018-04-09T00:57:32.010Z,12.30
2018-04-09T00:58:32.084Z,12.30
2018-04-09T00:59:32.046Z,12.30
2018-04-09T01:00:32.133Z,12.30
2018-04-09T01:01:32.014Z,12.30
2018-04-09T01:02:32.054Z,11.60
2018-04-09T01:03:32.016Z,11.60
2018-04-09T01:04:32.074Z,11.60
2018-04-09T01:05:32.012Z,11.60
2018-04-09T01:06:32.090Z,11.60
2018-04-09T01:07:32.013Z,11.60
2018-04-09T01:08:32.014Z,11.60
2018-04-09T01:09:32.095Z,11.60
2018-04-09T01:10:32.016Z,11.60
2018-04-09T01:11:32.026Z,11.60
2018-04-09T01:12:32.110Z,12.50
2018-04-09T01:13:32.117Z,12.50
2018-04-09T01:14:32.120Z,12.50
2018-04-09T01:15:32.118Z,12.50
2018-04-09T01:16:32.056Z,12.50
2018-04-09T01:17:32.028Z,12.50
2018-04-09T01:18:32.027Z,12.50
2018-04-09T01:19:32.094Z,12.50
2018-04-09T01:20:32.098Z,12.50
2018-04-09T01:21:32.013Z,12.50
2018-04-09T01:22:32.088Z,14.40
2018-04-09T01:23:32.096Z,14.40
2018-04-09T01:24:32.152Z,14.40
2018-04-09T01:25:32.129Z,14.40
2018-04-09T01:26:32.128Z,14.40
2018-04-09T01:27:32.118Z,14.40
2018-04-09T01:28:32.107Z,14.40
2018-04-09T01:29:32.104Z,14.40
2018-04-09T01:30:32.096Z,14.40
2018-04-09T01:31:32.100Z,14.40
2018-04-09T01:32:32.044Z,13.99
2018-04-09T01:33:32.095Z,13.99
2018-04-09T01:34:32.016Z,13.99
2018-04-09T01:35:32.096Z,13.99
2018-04-09T01:36:32.051Z,13.99
2018-04-09T01:37:32.096Z,13.99
2018-04-09T01:38:32.031Z,13.99
2018-04-09T01:39:32.098Z,13.99
2018-04-09T01:40:32.023Z,13.99
2018-04-09T01:41:32.096Z,13.99
2018-04-09T01:42:32.039Z,12.10
2018-04-09T01:43:32.037Z,12.10
2018-04-09T01:44:32.037Z,12.10
2018-04-09T01:45:32.112Z,12.10
2018-04-09T01:46:32.114Z,12.10
2018-04-09T01:47:32.038Z,12.10
2018-04-09T01:48:32.038Z,12.10
2018-04-09T01:49:32.038Z,12.10
2018-04-09T01:50:32.112Z,12.10
2018-04-09T01:51:32.046Z,12.10
2018-04-09T01:52:32.047Z,13.50
2018-04-09T01:53:32.107Z,13.50
2018-04-09T01:54:32.200Z,13.50
2018-04-09T01:55:32.135Z,13.50
2018-04-09T01:56:32.150Z,13.50
2018-04-09T01:57:32.145Z,13.50
2018-04-09T01:58:32.114Z,13.50
2018-04-09T01:59:32.051Z,13.50
2018-04-09T02:00:32.094Z,13.50
2018-04-09T02:01:32.116Z,13.50
2018-04-09T02:02:32.109Z,13.10
2018-04-09T02:03:32.035Z,13.10
2018-04-09T02:04:32.111Z,13.10
2018-04-09T02:05:32.040Z,13.10
2018-04-09T02:06:32.120Z,13.10
2018-04-09T02:07:32.043Z,13.10
2018-04-09T02:08:32.113Z,13.10
2018-04-09T02:09:32.037Z,13.10
2018-04-09T02:10:32.117Z,13.10
2018-04-09T02:11:32.041Z,13.10
2018-04-09T02:12:32.125Z,13.10
2018-04-09T02:13:32.127Z,13.10
2018-04-09T02:14:32.129Z,13.10
2018-04-09T02:15:32.090Z,13.10
2018-04-09T02:16:32.130Z,13.10
2018-04-09T02:17:32.127Z,13.10
2018-04-09T02:18:32.128Z,13.10
2018-04-09T02:19:32.135Z,13.10
2018-04-09T02:20:32.137Z,13.10
2018-04-09T02:21:32.064Z,13.10
2018-04-09T02:22:32.077Z,13.90
2018-04-09T02:23:32.127Z,13.90
2018-04-09T02:24:32.062Z,13.90
2018-04-09T02:25:32.062Z,13.90
2018-04-09T02:26:32.139Z,13.90
2018-04-09T02:27:32.157Z,13.90
2018-04-09T02:28:32.031Z,13.90
2018-04-09T02:29:32.092Z,13.90
2018-04-09T02:30:32.067Z,13.90
2018-04-09T02:31:32.033Z,13.90
2018-04-09T02:32:32.106Z,11.80
2018-04-09T02:33:32.136Z,11.80
2018-04-09T02:34:32.116Z,11.80
2018-04-09T02:35:32.059Z,11.80
2018-04-09T02:36:32.168Z,11.80
2018-04-09T02:37:32.150Z,11.80
2018-04-09T02:38:32.125Z,11.80
2018-04-09T02:39:32.099Z,11.80
2018-04-09T02:40:32.200Z,11.80
2018-04-09T02:41:32.113Z,11.80
2018-04-09T02:42:32.141Z,12.90
2018-04-09T02:43:32.067Z,12.90
2018-04-09T02:44:32.173Z,12.90
2018-04-09T02:45:32.208Z,12.90
2018-04-09T02:46:32.143Z,12.90
2018-04-09T02:47:32.069Z,12.90
2018-04-09T02:48:32.128Z,12.90
2018-04-09T02:49:32.152Z,12.90
2018-04-09T02:50:32.087Z,12.90
2018-04-09T02:51:32.085Z,12.90
2018-04-09T02:52:32.083Z,11.80
2018-04-09T02:53:32.155Z,11.80
2018-04-09T02:54:32.152Z,11.80
2018-04-09T02:55:32.199Z,11.80
2018-04-09T02:56:32.080Z,11.80
2018-04-09T02:57:32.191Z,11.80
2018-04-09T02:58:32.089Z,11.80
2018-04-09T02:59:32.085Z,11.80
2018-04-09T03:00:32.157Z,11.80
2018-04-09T03:01:32.084Z,11.80
2018-04-09T03:02:32.161Z,11.60
2018-04-09T03:03:32.136Z,11.60
2018-04-09T03:04:32.192Z,11.60
2018-04-09T03:05:32.193Z,11.60
2018-04-09T03:06:32.168Z,11.60
2018-04-09T03:07:32.124Z,11.60
2018-04-09T03:08:32.162Z,11.60
2018-04-09T03:09:32.077Z,11.60
2018-04-09T03:10:32.094Z,11.60
2018-04-09T03:11:32.160Z,11.60
2018-04-09T03:12:32.087Z,12.20
2018-04-09T03:13:32.154Z,12.20
2018-04-09T03:14:32.081Z,12.20
2018-04-09T03:15:32.154Z,12.20
2018-04-09T03:16:32.093Z,12.20
2018-04-09T03:17:32.159Z,12.20
2018-04-09T03:18:32.116Z,12.20
2018-04-09T03:19:32.159Z,12.20
2018-04-09T03:20:32.088Z,12.20
2018-04-09T03:21:32.158Z,12.20
2018-04-09T03:22:32.147Z,13.60
2018-04-09T03:23:32.206Z,13.60
2018-04-09T03:24:32.072Z,13.60
2018-04-09T03:25:32.197Z,13.60
2018-04-09T03:26:32.072Z,13.60
2018-04-09T03:27:32.089Z,13.60
2018-04-09T03:28:32.195Z,13.60
2018-04-09T03:29:32.152Z,13.60
2018-04-09T03:30:32.152Z,13.60
2018-04-09T03:31:32.142Z,13.60
2018-04-09T03:32:32.190Z,13.80
2018-04-09T03:33:32.179Z,13.80
2018-04-09T03:34:32.161Z,13.80
2018-04-09T03:35:32.106Z,13.80
2018-04-09T03:36:32.165Z,13.80
2018-04-09T03:37:32.109Z,13.80
2018-04-09T03:38:32.143Z,13.80
2018-04-09T03:39:32.063Z,13.80
2018-04-09T03:40:32.138Z,13.80
2018-04-09T03:41:32.070Z,13.80
2018-04-09T03:42:32.081Z,12.60
2018-04-09T03:43:32.114Z,12.60
2018-04-09T03:44:32.239Z,12.60
2018-04-09T03:45:32.177Z,12.60
2018-04-09T03:46:32.099Z,12.60
2018-04-09T03:47:32.122Z,12.60
2018-04-09T03:48:32.181Z,12.60
2018-04-09T03:49:32.180Z,12.60
2018-04-09T03:50:32.219Z,12.60
2018-04-09T03:51:32.211Z,12.60
2018-04-09T03:52:32.152Z,13.99
2018-04-09T03:53:32.184Z,13.99
2018-04-09T03:54:32.182Z,13.99
2018-04-09T03:55:32.213Z,13.99
2018-04-09T03:56:32.244Z,13.99
2018-04-09T03:57:32.222Z,13.99
2018-04-09T03:58:32.221Z,13.99
2018-04-09T03:59:32.093Z,13.99
2018-04-09T04:00:32.224Z,13.99
2018-04-09T04:01:32.224Z,13.99
2018-04-09T04:02:32.099Z,13.10
2018-04-09T04:03:32.153Z,13.10
2018-04-09T04:04:32.095Z,13.10
2018-04-09T04:05:32.267Z,13.10
2018-04-09T04:06:32.153Z,13.10
2018-04-09T04:07:32.220Z,13.10
2018-04-09T04:08:32.100Z,13.10
2018-04-09T04:09:32.200Z,13.10
2018-04-09T04:10:32.131Z,13.10
2018-04-09T04:11:32.204Z,13.10
2018-04-09T04:12:32.192Z,13.70
2018-04-09T04:13:32.124Z,13.70
2018-04-09T04:14:32.191Z,13.70
2018-04-09T04:15:32.122Z,13.70
2018-04-09T04:16:32.194Z,13.70
2018-04-09T04:17:32.125Z,13.70
2018-04-09T04:18:32.195Z,13.70
2018-04-09T04:19:32.125Z,13.70
2018-04-09T04:20:32.196Z,13.70
2018-04-09T04:21:32.130Z,13.70
2018-04-09T04:22:32.201Z,10.90
2018-04-09T04:23:32.173Z,10.90
2018-04-09T04:24:32.226Z,10.90
2018-04-09T04:25:32.211Z,10.90
2018-04-09T04:26:32.185Z,10.90
2018-04-09T04:27:32.168Z,10.90
2018-04-09T04:28:32.287Z,10.90
2018-04-09T04:29:32.236Z,10.90
2018-04-09T04:30:32.125Z,10.90
2018-04-09T04:31:32.239Z,10.90
2018-04-09T04:32:32.247Z,11.30
2018-04-09T04:33:32.285Z,11.30
2018-04-09T04:34:32.127Z,11.30
2018-04-09T04:35:32.208Z,11.30
2018-04-09T04:36:32.176Z,11.30
2018-04-09T04:37:32.181Z,11.30
2018-04-09T04:38:32.244Z,11.30
2018-04-09T04:39:32.214Z,11.30
2018-04-09T04:40:32.193Z,11.30
2018-04-09T04:41:32.253Z,11.30
2018-04-09T04:42:32.251Z,12.90
2018-04-09T04:43:32.235Z,12.90
2018-04-09T04:44:32.222Z,12.90
2018-04-09T04:45:32.137Z,12.90
2018-04-09T04:46:32.280Z,12.90
2018-04-09T04:47:32.277Z,12.90
2018-04-09T04:48:32.200Z,12.90
2018-04-09T04:49:32.184Z,12.90
2018-04-09T04:50:32.142Z,12.90
2018-04-09T04:51:32.222Z,12.90
2018-04-09T04:52:32.143Z,12.40
2018-04-09T04:53:32.221Z,12.40
2018-04-09T04:54:32.221Z,12.40
2018-04-09T04:55:32.201Z,12.40
2018-04-09T04:56:32.226Z,12.40
2018-04-09T04:57:32.191Z,12.40
2018-04-09T04:58:32.144Z,12.40
2018-04-09T04:59:32.191Z,12.40
2018-04-09T05:00:32.125Z,12.40
2018-04-09T05:01:32.228Z,12.40
2018-04-09T05:02:32.219Z,13.40
2018-04-09T05:03:32.214Z,13.40
2018-04-09T05:04:32.191Z,13.40
2018-04-09T05:05:32.109Z,13.40
2018-04-09T05:06:32.132Z,13.40
2018-04-09T05:07:32.221Z,13.40
2018-04-09T05:08:32.177Z,13.40
2018-04-09T05:09:32.161Z,13.40
2018-04-09T05:10:32.137Z,13.40
2018-04-09T05:11:32.256Z,13.40
2018-04-09T05:12:32.225Z,12.00
2018-04-09T05:13:32.227Z,12.00
2018-04-09T05:14:32.223Z,12.00
2018-04-09T05:15:32.191Z,12.00
2018-04-09T05:16:32.189Z,12.00
2018-04-09T05:17:32.111Z,12.00
2018-04-09T05:18:32.141Z,12.00
2018-04-09T05:19:32.227Z,12.00
2018-04-09T05:20:32.226Z,12.00
2018-04-09T05:21:32.233Z,12.00
2018-04-09T05:22:32.174Z,14.00
2018-04-09T05:23:32.177Z,14.00
2018-04-09T05:24:32.226Z,14.00
2018-04-09T05:25:32.215Z,14.00
2018-04-09T05:26:32.219Z,14.00
2018-04-09T05:27:32.172Z,14.00
2018-04-09T05:28:32.172Z,14.00
2018-04-09T05:29:32.176Z,14.00
2018-04-09T05:30:32.180Z,14.00
2018-04-09T05:31:32.176Z,14.00
2018-04-09T05:32:32.144Z,13.20
2018-04-09T05:33:32.246Z,13.20
2018-04-09T05:34:32.209Z,13.20
2018-04-09T05:35:32.277Z,13.20
2018-04-09T05:36:32.284Z,13.20
2018-04-09T05:37:32.236Z,13.20
2018-04-09T05:38:32.245Z,13.20
2018-04-09T05:39:32.250Z,13.20
2018-04-09T05:40:32.214Z,13.20
2018-04-09T05:41:32.308Z,13.20
2018-04-09T05:42:32.207Z,12.50
2018-04-09T05:43:32.244Z,12.50
2018-04-09T05:44:32.240Z,12.50
2018-04-09T05:45:32.181Z,12.50
2018-04-09T05:46:32.189Z,12.50
2018-04-09T05:47:32.173Z,12.50
2018-04-09T05:48:32.126Z,12.50
2018-04-09T05:49:32.251Z,12.50
2018-04-09T05:50:32.249Z,12.50
2018-04-09T05:51:32.253Z,12.50
2018-04-09T05:52:32.353Z,11.90
2018-04-09T05:53:32.262Z,11.90
2018-04-09T05:54:32.222Z,11.90
2018-04-09T05:55:32.178Z,11.90
2018-04-09T05:56:32.257Z,11.90
2018-04-09T05:57:32.195Z,11.90
2018-04-09T05:58:32.188Z,11.90
2018-04-09T05:59:32.301Z,11.90
2018-04-09T06:00:32.183Z,11.90
2018-04-09T06:01:32.306Z,11.90
2018-04-09T06:02:32.225Z,12.50
2018-04-09T06:03:32.191Z,12.50
2018-04-09T06:04:32.244Z,12.50
2018-04-09T06:05:32.337Z,12.50
2018-04-09T06:06:32.321Z,12.50
2018-04-09T06:07:32.243Z,12.50
2018-04-09T06:08:32.304Z,12.50
2018-04-09T06:09:32.265Z,12.50
2018-04-09T06:10:32.170Z,12.50
2018-04-09T06:11:32.295Z,12.50
2018-04-09T06:12:32.201Z,14.60
2018-04-09T06:13:32.269Z,14.60
2018-04-09T06:14:32.205Z,14.60
2018-04-09T06:15:32.170Z,14.60
2018-04-09T06:16:32.203Z,14.60
2018-04-09T06:17:32.275Z,14.60
2018-04-09T06:18:32.271Z,14.60
2018-04-09T06:19:32.213Z,14.60
2018-04-09T06:20:32.208Z,14.60
2018-04-09T06:21:32.277Z,14.60
2018-04-09T06:22:32.305Z,16.10
2018-04-09T06:23:32.315Z,16.10
2018-04-09T06:24:32.301Z,16.10
2018-04-09T06:25:32.301Z,16.10
2018-04-09T06:26:32.256Z,16.10
2018-04-09T06:27:32.301Z,16.10
2018-04-09T06:28:32.252Z,16.10
2018-04-09T06:29:32.289Z,16.10
2018-04-09T06:30:32.260Z,16.10
2018-04-09T06:31:32.285Z,16.10
2018-04-09T06:32:32.183Z,17.00
2018-04-09T06:33:32.167Z,17.00
2018-04-09T06:35:32.140Z,17.00
2018-04-09T06:36:32.234Z,17.00
2018-04-09T06:37:32.212Z,17.00
2018-04-09T06:38:32.143Z,17.00
2018-04-09T06:39:32.141Z,17.00
2018-04-09T06:40:32.192Z,17.00
2018-04-09T06:41:32.236Z,17.00
2018-04-09T06:42:32.220Z,15.30
2018-04-09T06:43:32.220Z,15.30
2018-04-09T06:44:32.293Z,15.30
2018-04-09T06:45:32.302Z,15.30
2018-04-09T06:46:32.220Z,15.30
2018-04-09T06:47:32.294Z,15.30
2018-04-09T06:48:32.230Z,15.30
2018-04-09T06:49:32.295Z,15.30
2018-04-09T06:50:32.329Z,15.30
2018-04-09T06:51:32.222Z,15.30
2018-04-09T06:52:32.264Z,16.10
2018-04-09T06:53:32.330Z,16.10
2018-04-09T06:54:32.317Z,16.10
2018-04-09T06:55:32.312Z,16.10
2018-04-09T06:56:32.294Z,16.10
2018-04-09T06:57:32.335Z,16.10
2018-04-09T06:58:32.299Z,16.10
2018-04-09T06:59:32.317Z,16.10
2018-04-09T07:00:32.264Z,16.10
2018-04-09T07:01:32.323Z,16.10
2018-04-09T07:02:32.297Z,16.40
2018-04-09T07:03:32.303Z,16.40
2018-04-09T07:04:32.319Z,16.40
2018-04-09T07:05:32.306Z,16.40
2018-04-09T07:06:32.217Z,16.40
2018-04-09T07:07:32.299Z,16.40
2018-04-09T07:08:32.341Z,16.40
2018-04-09T07:09:32.278Z,16.40
2018-04-09T07:10:32.333Z,16.40
2018-04-09T07:11:32.237Z,16.40
2018-04-09T07:12:32.340Z,15.80
2018-04-09T07:13:32.276Z,15.80
2018-04-09T07:14:32.229Z,15.80
2018-04-09T07:15:32.226Z,15.80
2018-04-09T07:16:32.289Z,15.80
2018-04-09T07:17:32.234Z,15.80
2018-04-09T07:18:32.289Z,15.80
2018-04-09T07:19:32.231Z,15.80
2018-04-09T07:20:32.272Z,15.80
2018-04-09T07:21:32.238Z,15.80
2018-04-09T07:22:32.316Z,17.99
2018-04-09T07:23:32.245Z,17.99
2018-04-09T07:24:32.314Z,17.99
2018-04-09T07:25:32.248Z,17.99
2018-04-09T07:26:32.320Z,17.99
2018-04-09T07:27:32.206Z,17.99
2018-04-09T07:28:32.244Z,17.99
2018-04-09T07:29:32.318Z,17.99
2018-04-09T07:30:32.248Z,17.99
2018-04-09T07:31:32.322Z,17.99
2018-04-09T07:32:32.272Z,17.20
2018-04-09T07:33:32.344Z,17.20
2018-04-09T07:34:32.217Z,17.20
2018-04-09T07:35:32.320Z,17.20
2018-04-09T07:36:32.228Z,17.20
2018-04-09T07:37:32.300Z,17.20
2018-04-09T07:38:32.229Z,17.20
2018-04-09T07:39:32.322Z,17.20
2018-04-09T07:40:32.342Z,17.20
2018-04-09T07:41:32.262Z,17.20
2018-04-09T07:42:32.260Z,17.20
2018-04-09T07:43:32.269Z,17.00
2018-04-09T07:44:32.141Z,17.00
2018-04-09T07:45:32.171Z,17.00
2018-04-09T07:46:32.146Z,17.00
2018-04-09T07:47:32.151Z,17.00
2018-04-09T07:48:32.175Z,17.00
2018-04-09T07:49:32.197Z,17.00
2018-04-09T07:50:32.144Z,17.00
2018-04-09T07:51:32.255Z,17.00
2018-04-09T07:52:32.202Z,17.00
2018-04-09T07:53:32.311Z,16.70
2018-04-09T07:54:32.334Z,16.70
2018-04-09T07:55:32.238Z,16.70
2018-04-09T07:56:32.299Z,16.70
2018-04-09T07:57:32.258Z,16.70
2018-04-09T07:58:32.354Z,16.70
2018-04-09T07:59:32.330Z,16.70
2018-04-09T08:00:32.238Z,16.70
2018-04-09T08:01:32.327Z,16.70
2018-04-09T08:02:32.328Z,16.70
2018-04-09T08:03:32.299Z,16.90
2018-04-09T08:04:32.331Z,16.90
2018-04-09T08:05:32.332Z,16.90
2018-04-09T08:06:32.224Z,16.90
2018-04-09T08:07:32.259Z,16.90
2018-04-09T08:08:32.334Z,16.90
2018-04-09T08:09:32.332Z,16.90
2018-04-09T08:10:32.237Z,16.90
2018-04-09T08:11:32.335Z,16.90
2018-04-09T08:12:32.261Z,16.90
2018-04-09T08:13:32.275Z,17.30
2018-04-09T08:14:32.278Z,17.30
2018-04-09T08:15:32.249Z,17.30
2018-04-09T08:16:32.347Z,17.30
2018-04-09T08:17:32.446Z,17.30
2018-04-09T08:18:32.347Z,17.30
2018-04-09T08:19:32.278Z,17.30
2018-04-09T08:20:32.351Z,17.30
2018-04-09T08:21:32.282Z,17.30
2018-04-09T08:22:32.281Z,17.30
2018-04-09T08:23:32.351Z,16.20
2018-04-09T08:24:32.292Z,16.20
2018-04-09T08:25:32.355Z,16.20
2018-04-09T08:26:32.283Z,16.20
2018-04-09T08:27:32.354Z,16.20
2018-04-09T08:28:32.287Z,16.20
2018-04-09T08:29:32.284Z,16.20
2018-04-09T08:30:32.287Z,16.20
2018-04-09T08:31:32.289Z,16.20
2018-04-09T08:32:32.357Z,16.20
2018-04-09T08:33:32.353Z,17.30
2018-04-09T08:34:32.281Z,17.30
2018-04-09T08:35:32.357Z,17.30
2018-04-09T08:36:32.362Z,17.30
2018-04-09T08:37:32.263Z,17.30
2018-04-09T08:38:32.321Z,17.30
2018-04-09T08:39:32.320Z,17.30
2018-04-09T08:40:32.360Z,17.30
2018-04-09T08:41:32.417Z,17.30
2018-04-09T08:42:32.406Z,17.30
2018-04-09T08:43:32.287Z,16.80
2018-04-09T08:44:32.280Z,16.80
2018-04-09T08:45:32.305Z,16.80
2018-04-09T08:46:32.360Z,16.80
2018-04-09T08:47:32.353Z,16.80
2018-04-09T08:48:32.290Z,16.80
2018-04-09T08:49:32.361Z,16.80
2018-04-09T08:50:32.353Z,16.80
2018-04-09T08:51:32.323Z,16.80
2018-04-09T08:52:32.443Z,16.80
2018-04-09T08:53:32.255Z,15.40
2018-04-09T08:54:32.290Z,15.40
2018-04-09T08:55:32.368Z,15.40
2018-04-09T08:56:32.296Z,15.40
2018-04-09T08:57:32.336Z,15.40
2018-04-09T08:58:32.364Z,15.40
2018-04-09T08:59:32.288Z,15.40
2018-04-09T09:00:32.367Z,15.40
2018-04-09T09:01:32.335Z,15.40
2018-04-09T09:02:32.248Z,15.40
2018-04-09T09:03:32.378Z,16.90
2018-04-09T09:04:32.307Z,16.90
2018-04-09T09:05:32.381Z,16.90
2018-04-09T09:06:32.309Z,16.90
2018-04-09T09:07:32.382Z,16.90
2018-04-09T09:08:32.318Z,16.90
2018-04-09T09:09:32.382Z,16.90
2018-04-09T09:10:32.383Z,16.90
2018-04-09T09:11:32.310Z,16.90
2018-04-09T09:12:32.387Z,16.90
2018-04-09T09:13:32.386Z,15.70
2018-04-09T09:14:32.312Z,15.70
2018-04-09T09:15:32.401Z,15.70
2018-04-09T09:16:32.392Z,15.70
2018-04-09T09:17:32.351Z,15.70
2018-04-09T09:18:32.321Z,15.70
2018-04-09T09:19:32.319Z,15.70
2018-04-09T09:20:32.323Z,15.70
2018-04-09T09:21:32.388Z,15.70
2018-04-09T09:22:32.396Z,15.70
2018-04-09T09:23:32.215Z,14.00
2018-04-09T09:24:32.236Z,14.00
2018-04-09T09:25:32.265Z,14.00
2018-04-09T09:26:32.320Z,14.00
2018-04-09T09:27:32.264Z,14.00
2018-04-09T09:28:32.241Z,14.00
2018-04-09T09:29:32.220Z,14.00
2018-04-09T09:30:32.326Z,14.00
2018-04-09T09:31:32.280Z,14.00
2018-04-09T09:32:32.208Z,14.00
2018-04-09T09:33:32.298Z,11.80
2018-04-09T09:34:32.369Z,11.80
2018-04-09T09:35:32.376Z,11.80
2018-04-09T09:36:32.370Z,11.80
2018-04-09T09:37:32.495Z,11.80
2018-04-09T09:38:32.415Z,11.80
2018-04-09T09:39:32.414Z,11.80
2018-04-09T09:40:32.436Z,11.80
2018-04-09T09:41:32.429Z,11.80
2018-04-09T09:42:32.443Z,11.80
2018-04-09T09:43:32.377Z,11.40
2018-04-09T09:44:32.423Z,11.40
2018-04-09T09:45:32.363Z,11.40
2018-04-09T09:46:32.442Z,11.40
2018-04-09T09:47:32.438Z,11.40
2018-04-09T09:48:32.426Z,11.40
2018-04-09T09:49:32.406Z,11.40
2018-04-09T09:50:32.307Z,11.40
2018-04-09T09:51:32.424Z,11.40
2018-04-09T09:52:32.409Z,11.40
2018-04-09T09:53:32.404Z,10.10
2018-04-09T09:54:32.429Z,10.10
2018-04-09T09:55:32.381Z,10.10
2018-04-09T09:56:32.429Z,10.10
2018-04-09T09:57:32.327Z,10.10
2018-04-09T09:58:32.385Z,10.10
2018-04-09T09:59:32.430Z,10.10
2018-04-09T10:00:32.394Z,10.10
2018-04-09T10:01:32.309Z,10.10
2018-04-09T10:02:32.442Z,10.10
2018-04-09T10:03:32.427Z,8.50
2018-04-09T10:04:32.330Z,8.50
2018-04-09T10:05:32.444Z,8.50
2018-04-09T10:06:32.438Z,8.50
2018-04-09T10:07:32.412Z,8.50
2018-04-09T10:08:32.444Z,8.50
2018-04-09T10:09:32.381Z,8.50
2018-04-09T10:10:32.442Z,8.50
2018-04-09T10:11:32.439Z,8.50
2018-04-09T10:12:32.449Z,8.50
2018-04-09T10:13:32.285Z,8.10
2018-04-09T10:14:32.354Z,8.10
2018-04-09T10:15:32.336Z,8.10
2018-04-09T10:16:32.322Z,8.10
2018-04-09T10:17:32.290Z,8.10
2018-04-09T10:18:32.413Z,8.10
2018-04-09T10:19:32.416Z,8.10
2018-04-09T10:20:32.332Z,8.10
2018-04-09T10:21:32.405Z,8.10
2018-04-09T10:22:32.288Z,8.10
2018-04-09T10:23:32.422Z,7.50
2018-04-09T10:24:32.353Z,7.50
2018-04-09T10:25:32.431Z,7.50
2018-04-09T10:26:32.361Z,7.50
2018-04-09T10:27:32.427Z,7.50
2018-04-09T10:28:32.365Z,7.50
2018-04-09T10:29:32.425Z,7.50
2018-04-09T10:30:32.431Z,7.50
2018-04-09T10:31:32.362Z,7.50
2018-04-09T10:32:32.430Z,7.50
2018-04-09T10:33:32.361Z,5.90
2018-04-09T10:34:32.393Z,5.90
2018-04-09T10:35:32.365Z,5.90
2018-04-09T10:36:32.366Z,5.90
2018-04-09T10:37:32.426Z,5.90
2018-04-09T10:38:32.362Z,5.90
2018-04-09T10:39:32.363Z,5.90
2018-04-09T10:40:32.434Z,5.90
2018-04-09T10:41:32.365Z,5.90
2018-04-09T10:42:32.441Z,5.90
2018-04-09T10:43:32.435Z,6.70
2018-04-09T10:44:32.368Z,6.70
2018-04-09T10:45:32.400Z,6.70
2018-04-09T10:46:32.438Z,6.70
2018-04-09T10:47:32.440Z,6.70
2018-04-09T10:48:32.435Z,6.70
2018-04-09T10:49:32.444Z,6.70
2018-04-09T10:50:32.373Z,6.70
2018-04-09T10:51:32.443Z,6.70
2018-04-09T10:52:32.439Z,6.70
2018-04-09T10:53:32.482Z,6.50
2018-04-09T10:54:32.401Z,6.50
2018-04-09T10:55:32.351Z,6.50
2018-04-09T10:56:32.471Z,6.50
2018-04-09T10:57:32.398Z,6.50
2018-04-09T10:58:32.401Z,6.50
2018-04-09T10:59:32.491Z,6.50
2018-04-09T11:00:32.402Z,6.50
2018-04-09T11:01:32.386Z,6.50
2018-04-09T11:02:32.413Z,6.50
2018-04-09T11:03:32.488Z,7.99
2018-04-09T11:04:32.475Z,7.99
2018-04-09T11:05:32.470Z,7.99
2018-04-09T11:06:32.450Z,7.99
2018-04-09T11:07:32.420Z,7.99
2018-04-09T11:08:32.495Z,7.99
2018-04-09T11:09:32.448Z,7.99
2018-04-09T11:10:32.419Z,7.99
2018-04-09T11:11:32.449Z,7.99
2018-04-09T11:12:32.437Z,7.99
2018-04-09T11:13:32.494Z,8.10
2018-04-09T11:14:32.472Z,8.10
2018-04-09T11:15:32.451Z,8.10
2018-04-09T11:16:32.475Z,8.10
2018-04-09T11:17:32.484Z,8.10
2018-04-09T11:18:32.420Z,8.10
2018-04-09T11:19:32.479Z,8.10
2018-04-09T11:20:32.420Z,8.10
2018-04-09T11:21:32.493Z,8.10
2018-04-09T11:22:32.412Z,8.10
2018-04-09T11:23:32.393Z,8.40
2018-04-09T11:24:32.463Z,8.40
2018-04-09T11:25:32.468Z,8.40
2018-04-09T11:26:32.474Z,8.40
2018-04-09T11:27:32.399Z,8.40
2018-04-09T11:28:32.468Z,8.40
2018-04-09T11:29:32.471Z,8.40
2018-04-09T11:30:32.397Z,8.40
2018-04-09T11:31:32.467Z,8.40
2018-04-09T11:32:32.396Z,8.40
2018-04-09T11:33:32.484Z,7.50
2018-04-09T11:34:32.441Z,7.50
2018-04-09T11:35:32.464Z,7.50
2018-04-09T11:36:32.512Z,7.50
2018-04-09T11:37:32.373Z,7.50
2018-04-09T11:38:32.375Z,7.50
2018-04-09T11:39:32.383Z,7.50
2018-04-09T11:40:32.441Z,7.50
2018-04-09T11:41:32.475Z,7.50
2018-04-09T11:42:32.443Z,7.50
2018-04-09T11:43:32.384Z,6.90
2018-04-09T11:44:32.380Z,6.90
2018-04-09T11:45:32.381Z,6.90
2018-04-09T11:46:32.440Z,6.90
2018-04-09T11:47:32.508Z,6.90
2018-04-09T11:48:32.398Z,6.90
2018-04-09T11:49:32.518Z,6.90
2018-04-09T11:50:32.460Z,6.90
2018-04-09T11:51:32.480Z,6.90
2018-04-09T11:52:32.504Z,6.90
2018-04-09T11:53:32.510Z,8.60
2018-04-09T11:54:32.421Z,8.60
2018-04-09T11:55:32.524Z,8.60
2018-04-09T11:56:32.491Z,8.60
2018-04-09T11:57:32.463Z,8.60
2018-04-09T11:58:32.508Z,8.60
2018-04-09T11:59:32.627Z,8.60
2018-04-09T12:00:32.503Z,8.60
2018-04-09T12:01:32.520Z,8.60
2018-04-09T12:02:32.520Z,8.60
2018-04-09T12:03:32.421Z,9.40
2018-04-09T12:04:32.420Z,9.40
2018-04-09T12:05:32.493Z,9.40
2018-04-09T12:06:32.420Z,9.40
2018-04-09T12:07:32.431Z,9.40
2018-04-09T12:08:32.496Z,9.40
2018-04-09T12:09:32.428Z,9.40
2018-04-09T12:10:32.420Z,9.40
2018-04-09T12:11:32.493Z,9.40
2018-04-09T12:12:32.444Z,9.40
2018-04-09T12:13:32.525Z,9.50
2018-04-09T12:14:32.493Z,9.50
2018-04-09T12:15:32.498Z,9.50
2018-04-09T12:16:32.495Z,9.50
2018-04-09T12:17:32.459Z,9.50
2018-04-09T12:18:32.518Z,9.50
2018-04-09T12:19:32.526Z,9.50
2018-04-09T12:20:32.500Z,9.50
2018-04-09T12:21:32.407Z,9.50
2018-04-09T12:22:32.476Z,9.50
2018-04-09T12:23:32.466Z,9.60
2018-04-09T12:24:32.433Z,9.60
2018-04-09T12:25:32.509Z,9.60
2018-04-09T12:26:32.435Z,9.60
2018-04-09T12:27:32.446Z,9.60
2018-04-09T12:28:32.506Z,9.60
2018-04-09T12:29:32.435Z,9.60
2018-04-09T12:30:32.510Z,9.60
2018-04-09T12:31:32.525Z,9.60
2018-04-09T12:32:32.438Z,9.60
2018-04-09T12:33:32.411Z,9.50
2018-04-09T12:34:32.447Z,9.50
2018-04-09T12:35:32.472Z,9.50
2018-04-09T12:36:32.532Z,9.50
2018-04-09T12:37:32.478Z,9.50
2018-04-09T12:38:32.535Z,9.50
2018-04-09T12:39:32.433Z,9.50
2018-04-09T12:40:32.431Z,9.50
2018-04-09T12:41:32.421Z,9.50
2018-04-09T12:42:32.572Z,9.50
2018-04-09T12:43:32.381Z,9.00
2018-04-09T12:44:32.388Z,9.00
2018-04-09T12:45:32.509Z,9.00
2018-04-09T12:46:32.549Z,9.00
2018-04-09T12:47:32.435Z,9.00
2018-04-09T12:48:32.381Z,9.00
2018-04-09T12:49:32.425Z,9.00
2018-04-09T12:50:32.459Z,9.00
2018-04-09T12:51:32.516Z,9.00
2018-04-09T12:52:32.454Z,9.00
2018-04-09T12:53:32.544Z,8.90
2018-04-09T12:54:32.539Z,8.90
2018-04-09T12:55:32.519Z,8.90
2018-04-09T12:56:32.430Z,8.90
2018-04-09T12:57:32.495Z,8.90
2018-04-09T12:58:32.493Z,8.90
2018-04-09T12:59:32.557Z,8.90